Huvudsida
METAR-TAF:

METAR-TAF

Flygplatser :

Luleå Airport

Luleå, Sverige

latitud: 65-33N, longitud: 022-08E, höjd: 17 m

Aktuellt väderrapport

Denna rapport gjordes för 43 minuter sedan, klockan 20:20 UTC
Vind 8 kt från nord
Temperatur -2°C
Fuktighet 100%
Tryck 1006 hPa
Sikt: 2000 m
lätt snö,

METAR: ESPA 232020Z 35008KT 2000 -SN VV031 M02/M02 Q1006

Tid: 23:03 (21:03 UTC)

Väderprognos

Denna rapport gjordes för 33 minuter sedan, klockan 20:30 UTC
Prognos gäller från 23 kl. 21 UTC till 23 kl. 23 UTC
Vind 7 kt från nord
Sikt: 2000 m
på en höjd av 2000 ft
lätt snö
Temporärt
från 23 kl. 21 UTC till 23 kl. 23 UTC
Sikt: 5000 m
Brutna moln på en höjd av 800 ft

TAF: ESPA 232030Z 2321/2323 35007KT 2000 -SN VV020 TEMPO 2321/2323 5000 BKN008

Aktuella väderrapporter och prognoser från 4000 flygplatser (METAR- och TAF-rapporter).

De tillgängliga stationerna syns som gula och röda prickar på kartan.

För musen över prickarna för att se namnen på stationerna.

Klicka sedan för att få väderrapporter och prognoser.

För att ändra kartan: Klicka på de gröna knapparna med ett svart kors på för att zooma in; den gröna knappen med ett streck på för att zooma ut; eller på de gröna pilarna för angränsande kartor.


METAR-TAF: